Aérodrome :
LOGIN :

S'inscrire | Disclaimer

   EN    FR    IT 

 










Légende :    VFR   VFR Marginal   IFR   IFR Intensif   IFR Très Intensif
Visi : 
Plafond : 
>= 8 km
>= 3000ft
5 à 8 km
1000 à 3000 ft
1500m à 5 km
500 à 1000 ft
800 à 1500m
200 à 500 ft
< 800m
< 200 ft
Symboles :   Orages  Brouillard  Fortes neiges  Fortes précipitations  Vent > 20 kt
SIGMETs :   Divers  Orages  Givrage  Turbulence  Onde Orograph.  Cendres Volcan.







- Altitude de l'aérodrome : 336 ft
- Code IATA : GCI
- Voir les cartes d'approche


EGJB - Guernsey

DERNIER METAR :
  • 221950Z 28013KT 9999 SCT002 BKN003 10/10 Q1015

METARs EXPIRÉS :
  • 221920Z 28012KT 9999 BKN003 11/10 Q1014
  • 221850Z 28011KT 9999 BKN003 11/10 Q1014
  • 221820Z 28011KT 9999 BKN003 11/10 Q1013
  • 221750Z 28012KT 9999 FEW003 SCT004 11/10 Q1013
  • 221720Z 28011KT 9999 FEW004 11/10 Q1013

TAF TAF EGJB
Valide du 22 à 18h jusqu'au 23 à 03h UTC


221701Z 2218/2303 26014KT 8000 VCFG FEW001 SCT003
TEMPO 2218/2220 0500 FG BKN000
BECMG 2219/2221 9999 NSW SCT005
ATIS : +44 1481 238 957
Pas de NOTAMs connus pour ce terrain.
1 SIGMET publié pour la FIR Brest (LFRR) :
 
Orages noyés dans la masse
LFRR SIGMET 1 VALID 221900/222100 LFPW
LFRR BREST FIR/UIR EMBD TS FCST WI N4430 W00145 - N4330 W00145 - N4400 W00330 - N4415 W00245 - N4430 W00145 TOP FL350 STNR INTSF=



MET'MAP, la Météo Aéronautique d'un coup d'oeil ! - Copyright ORBIFLY Décembre 2007 - Disclaimer

ORBIFLY MET'MAP TEAM :

Programmation & Développement : Alexandra Zaïnal
Conception & Développement : Baudouin d'Aumeries
Co-Programmation & Développement : Marc-Olivier Méhu
Soutien technique & logistique : Manuel Goepfert

Contact : metmap@orbifly.com




SOURCES & CREDITS :

   NOAA